sensor_id;sensor_type;location;lat;lon;timestamp;P1;durP1;ratioP1;P2;durP2;ratioP2
35550;SDS011;21655;46.056;13.616;2023-06-22T00:01:15;17.92;;;12.43;;
35550;SDS011;21655;46.056;13.616;2023-06-22T00:03:41;19.15;;;13.23;;
35550;SDS011;21655;46.056;13.616;2023-06-22T00:06:06;14.88;;;12.50;;
35550;SDS011;21655;46.056;13.616;2023-06-22T00:08:31;16.40;;;12.85;;
35550;SDS011;21655;46.056;13.616;2023-06-22T00:10:57;21.80;;;13.88;;
35550;SDS011;21655;46.056;13.616;2023-06-22T00:13:22;24.00;;;14.00;;
35550;SDS011;21655;46.056;13.616;2023-06-22T00:15:48;20.15;;;14.23;;
35550;SDS011;21655;46.056;13.616;2023-06-22T00:18:13;21.63;;;14.65;;
35550;SDS011;21655;46.056;13.616;2023-06-22T00:20:39;18.75;;;13.38;;
35550;SDS011;21655;46.056;13.616;2023-06-22T00:23:05;18.55;;;14.27;;
35550;SDS011;21655;46.056;13.616;2023-06-22T00:25:34;21.25;;;13.85;;
35550;SDS011;21655;46.056;13.616;2023-06-22T00:28:05;22.25;;;14.70;;
35550;SDS011;21655;46.056;13.616;2023-06-22T00:30:31;20.00;;;15.75;;
35550;SDS011;21655;46.056;13.616;2023-06-22T00:32:57;20.60;;;14.73;;
35550;SDS011;21655;46.056;13.616;2023-06-22T00:35:24;18.33;;;12.75;;
35550;SDS011;21655;46.056;13.616;2023-06-22T00:37:54;22.58;;;13.13;;
35550;SDS011;21655;46.056;13.616;2023-06-22T00:40:30;18.58;;;13.45;;
35550;SDS011;21655;46.056;13.616;2023-06-22T00:42:56;20.67;;;13.07;;
35550;SDS011;21655;46.056;13.616;2023-06-22T00:45:22;23.60;;;13.80;;
35550;SDS011;21655;46.056;13.616;2023-06-22T00:47:49;18.83;;;14.48;;
35550;SDS011;21655;46.056;13.616;2023-06-22T00:50:18;25.15;;;15.05;;
35550;SDS011;21655;46.056;13.616;2023-06-22T00:52:48;17.38;;;13.50;;
35550;SDS011;21655;46.056;13.616;2023-06-22T00:55:16;18.45;;;13.30;;
35550;SDS011;21655;46.056;13.616;2023-06-22T00:57:43;21.70;;;14.00;;
35550;SDS011;21655;46.056;13.616;2023-06-22T01:00:11;17.08;;;13.90;;
35550;SDS011;21655;46.056;13.616;2023-06-22T01:02:42;21.02;;;13.65;;
35550;SDS011;21655;46.056;13.616;2023-06-22T01:05:11;20.70;;;14.15;;
35550;SDS011;21655;46.056;13.616;2023-06-22T01:13:25;21.88;;;14.70;;
35550;SDS011;21655;46.056;13.616;2023-06-22T01:16:03;18.10;;;14.77;;
35550;SDS011;21655;46.056;13.616;2023-06-22T01:18:34;28.42;;;15.18;;
35550;SDS011;21655;46.056;13.616;2023-06-22T01:21:05;21.15;;;14.35;;
35550;SDS011;21655;46.056;13.616;2023-06-22T01:29:05;21.73;;;14.73;;
35550;SDS011;21655;46.056;13.616;2023-06-22T01:31:33;22.30;;;15.50;;
35550;SDS011;21655;46.056;13.616;2023-06-22T01:34:01;22.10;;;14.18;;
35550;SDS011;21655;46.056;13.616;2023-06-22T01:36:30;20.85;;;14.75;;
35550;SDS011;21655;46.056;13.616;2023-06-22T01:38:58;18.80;;;14.23;;
35550;SDS011;21655;46.056;13.616;2023-06-22T01:41:25;21.38;;;14.95;;
35550;SDS011;21655;46.056;13.616;2023-06-22T01:43:51;19.58;;;14.68;;
35550;SDS011;21655;46.056;13.616;2023-06-22T01:46:18;21.05;;;14.68;;
35550;SDS011;21655;46.056;13.616;2023-06-22T01:48:45;20.50;;;14.55;;
35550;SDS011;21655;46.056;13.616;2023-06-22T01:51:11;19.55;;;13.95;;
35550;SDS011;21655;46.056;13.616;2023-06-22T01:53:37;30.92;;;15.48;;
35550;SDS011;21655;46.056;13.616;2023-06-22T01:56:02;27.42;;;15.65;;
35550;SDS011;21655;46.056;13.616;2023-06-22T01:58:29;23.17;;;16.25;;
35550;SDS011;21655;46.056;13.616;2023-06-22T02:00:59;21.23;;;15.32;;
35550;SDS011;21655;46.056;13.616;2023-06-22T02:03:34;24.15;;;16.17;;
35550;SDS011;21655;46.056;13.616;2023-06-22T02:06:05;27.05;;;16.17;;
35550;SDS011;21655;46.056;13.616;2023-06-22T02:08:41;24.02;;;16.25;;
35550;SDS011;21655;46.056;13.616;2023-06-22T02:11:11;23.67;;;16.27;;
35550;SDS011;21655;46.056;13.616;2023-06-22T02:13:40;21.83;;;15.30;;
35550;SDS011;21655;46.056;13.616;2023-06-22T02:16:08;21.48;;;15.43;;
35550;SDS011;21655;46.056;13.616;2023-06-22T02:18:38;21.73;;;15.13;;
35550;SDS011;21655;46.056;13.616;2023-06-22T02:21:05;24.08;;;15.02;;
35550;SDS011;21655;46.056;13.616;2023-06-22T02:23:31;22.73;;;14.85;;
35550;SDS011;21655;46.056;13.616;2023-06-22T02:25:59;20.15;;;14.65;;
35550;SDS011;21655;46.056;13.616;2023-06-22T02:28:25;29.13;;;14.05;;
35550;SDS011;21655;46.056;13.616;2023-06-22T02:30:51;25.20;;;15.05;;
35550;SDS011;21655;46.056;13.616;2023-06-22T02:33:16;19.08;;;15.40;;
35550;SDS011;21655;46.056;13.616;2023-06-22T02:35:41;22.92;;;15.88;;
35550;SDS011;21655;46.056;13.616;2023-06-22T02:38:10;23.35;;;16.63;;
35550;SDS011;21655;46.056;13.616;2023-06-22T02:40:36;20.73;;;15.25;;
35550;SDS011;21655;46.056;13.616;2023-06-22T02:43:01;24.50;;;16.13;;
35550;SDS011;21655;46.056;13.616;2023-06-22T02:45:27;21.27;;;15.73;;
35550;SDS011;21655;46.056;13.616;2023-06-22T02:47:53;21.83;;;15.93;;
35550;SDS011;21655;46.056;13.616;2023-06-22T02:50:19;26.05;;;15.95;;
35550;SDS011;21655;46.056;13.616;2023-06-22T02:52:45;22.15;;;14.88;;
35550;SDS011;21655;46.056;13.616;2023-06-22T02:55:10;21.60;;;15.55;;
35550;SDS011;21655;46.056;13.616;2023-06-22T02:57:35;22.58;;;15.98;;
35550;SDS011;21655;46.056;13.616;2023-06-22T03:00:02;22.08;;;16.02;;
35550;SDS011;21655;46.056;13.616;2023-06-22T03:02:41;27.45;;;15.88;;
35550;SDS011;21655;46.056;13.616;2023-06-22T03:05:07;24.23;;;16.48;;
35550;SDS011;21655;46.056;13.616;2023-06-22T03:07:34;20.33;;;15.95;;
35550;SDS011;21655;46.056;13.616;2023-06-22T03:10:00;21.60;;;16.23;;
35550;SDS011;21655;46.056;13.616;2023-06-22T03:12:25;22.63;;;16.80;;
35550;SDS011;21655;46.056;13.616;2023-06-22T03:14:51;21.88;;;15.77;;
35550;SDS011;21655;46.056;13.616;2023-06-22T03:17:16;21.48;;;15.38;;
35550;SDS011;21655;46.056;13.616;2023-06-22T03:19:41;19.33;;;15.52;;
35550;SDS011;21655;46.056;13.616;2023-06-22T03:22:07;19.88;;;15.23;;
35550;SDS011;21655;46.056;13.616;2023-06-22T03:24:38;22.27;;;16.60;;
35550;SDS011;21655;46.056;13.616;2023-06-22T03:27:04;22.08;;;15.45;;
35550;SDS011;21655;46.056;13.616;2023-06-22T03:29:30;22.98;;;15.20;;
35550;SDS011;21655;46.056;13.616;2023-06-22T03:31:56;22.23;;;16.20;;
35550;SDS011;21655;46.056;13.616;2023-06-22T03:34:21;25.65;;;16.75;;
35550;SDS011;21655;46.056;13.616;2023-06-22T03:36:47;23.67;;;16.67;;
35550;SDS011;21655;46.056;13.616;2023-06-22T03:39:12;25.77;;;16.02;;
35550;SDS011;21655;46.056;13.616;2023-06-22T03:41:38;22.42;;;16.42;;
35550;SDS011;21655;46.056;13.616;2023-06-22T03:44:04;21.50;;;16.48;;
35550;SDS011;21655;46.056;13.616;2023-06-22T03:46:29;20.45;;;16.20;;
35550;SDS011;21655;46.056;13.616;2023-06-22T03:48:55;22.70;;;16.50;;
35550;SDS011;21655;46.056;13.616;2023-06-22T03:51:20;27.85;;;16.40;;
35550;SDS011;21655;46.056;13.616;2023-06-22T03:53:45;20.55;;;15.68;;
35550;SDS011;21655;46.056;13.616;2023-06-22T03:56:11;22.95;;;16.60;;
35550;SDS011;21655;46.056;13.616;2023-06-22T03:58:36;26.02;;;16.13;;
35550;SDS011;21655;46.056;13.616;2023-06-22T04:01:07;23.15;;;15.95;;
35550;SDS011;21655;46.056;13.616;2023-06-22T04:03:36;22.92;;;15.65;;
35550;SDS011;21655;46.056;13.616;2023-06-22T04:06:02;22.67;;;14.80;;
35550;SDS011;21655;46.056;13.616;2023-06-22T04:08:27;22.70;;;15.05;;
35550;SDS011;21655;46.056;13.616;2023-06-22T04:10:53;17.60;;;14.43;;
35550;SDS011;21655;46.056;13.616;2023-06-22T04:13:18;19.83;;;14.73;;
35550;SDS011;21655;46.056;13.616;2023-06-22T04:15:44;23.48;;;14.50;;
35550;SDS011;21655;46.056;13.616;2023-06-22T04:18:10;20.65;;;15.30;;
35550;SDS011;21655;46.056;13.616;2023-06-22T04:20:35;25.73;;;15.70;;
35550;SDS011;21655;46.056;13.616;2023-06-22T04:23:01;18.02;;;14.20;;
35550;SDS011;21655;46.056;13.616;2023-06-22T04:25:26;19.38;;;15.25;;
35550;SDS011;21655;46.056;13.616;2023-06-22T04:27:52;24.13;;;14.77;;
35550;SDS011;21655;46.056;13.616;2023-06-22T04:30:17;24.73;;;15.55;;
35550;SDS011;21655;46.056;13.616;2023-06-22T04:32:43;20.35;;;15.55;;
35550;SDS011;21655;46.056;13.616;2023-06-22T04:35:09;24.40;;;15.40;;
35550;SDS011;21655;46.056;13.616;2023-06-22T04:37:35;20.35;;;14.23;;
35550;SDS011;21655;46.056;13.616;2023-06-22T04:40:01;21.33;;;14.68;;
35550;SDS011;21655;46.056;13.616;2023-06-22T04:42:26;17.70;;;13.68;;
35550;SDS011;21655;46.056;13.616;2023-06-22T04:44:52;20.23;;;13.18;;
35550;SDS011;21655;46.056;13.616;2023-06-22T04:47:17;17.08;;;12.50;;
35550;SDS011;21655;46.056;13.616;2023-06-22T04:49:43;16.38;;;12.50;;
35550;SDS011;21655;46.056;13.616;2023-06-22T04:52:09;18.08;;;12.43;;
35550;SDS011;21655;46.056;13.616;2023-06-22T04:54:37;19.33;;;13.18;;
35550;SDS011;21655;46.056;13.616;2023-06-22T04:57:04;20.13;;;12.43;;
35550;SDS011;21655;46.056;13.616;2023-06-22T04:59:34;19.35;;;13.23;;
35550;SDS011;21655;46.056;13.616;2023-06-22T05:02:01;16.55;;;11.95;;
35550;SDS011;21655;46.056;13.616;2023-06-22T05:04:28;19.00;;;12.45;;
35550;SDS011;21655;46.056;13.616;2023-06-22T05:06:56;19.67;;;11.75;;
35550;SDS011;21655;46.056;13.616;2023-06-22T05:09:22;24.95;;;11.65;;
35550;SDS011;21655;46.056;13.616;2023-06-22T05:11:49;17.58;;;10.80;;
35550;SDS011;21655;46.056;13.616;2023-06-22T05:14:15;18.38;;;11.50;;
35550;SDS011;21655;46.056;13.616;2023-06-22T05:16:41;16.52;;;11.38;;
35550;SDS011;21655;46.056;13.616;2023-06-22T05:19:07;24.77;;;11.98;;
35550;SDS011;21655;46.056;13.616;2023-06-22T05:21:33;20.33;;;11.85;;
35550;SDS011;21655;46.056;13.616;2023-06-22T05:23:58;25.10;;;12.35;;
35550;SDS011;21655;46.056;13.616;2023-06-22T05:26:28;20.73;;;12.45;;
35550;SDS011;21655;46.056;13.616;2023-06-22T05:28:55;20.38;;;12.50;;
35550;SDS011;21655;46.056;13.616;2023-06-22T05:31:20;27.27;;;12.82;;
35550;SDS011;21655;46.056;13.616;2023-06-22T05:33:46;22.83;;;11.93;;
35550;SDS011;21655;46.056;13.616;2023-06-22T05:36:13;27.08;;;12.40;;
35550;SDS011;21655;46.056;13.616;2023-06-22T05:38:38;25.25;;;12.43;;
35550;SDS011;21655;46.056;13.616;2023-06-22T05:41:04;21.55;;;12.27;;
35550;SDS011;21655;46.056;13.616;2023-06-22T05:43:30;27.88;;;13.20;;
35550;SDS011;21655;46.056;13.616;2023-06-22T05:45:56;20.58;;;12.68;;
35550;SDS011;21655;46.056;13.616;2023-06-22T05:48:22;22.58;;;12.45;;
35550;SDS011;21655;46.056;13.616;2023-06-22T05:50:47;23.50;;;12.48;;
35550;SDS011;21655;46.056;13.616;2023-06-22T05:53:13;19.42;;;11.55;;
35550;SDS011;21655;46.056;13.616;2023-06-22T05:55:38;23.13;;;11.52;;
35550;SDS011;21655;46.056;13.616;2023-06-22T05:58:03;19.65;;;11.82;;
35550;SDS011;21655;46.056;13.616;2023-06-22T06:00:29;19.55;;;12.10;;
35550;SDS011;21655;46.056;13.616;2023-06-22T06:02:55;22.02;;;11.88;;
35550;SDS011;21655;46.056;13.616;2023-06-22T06:05:20;26.23;;;12.07;;
35550;SDS011;21655;46.056;13.616;2023-06-22T06:07:46;27.63;;;12.07;;
35550;SDS011;21655;46.056;13.616;2023-06-22T06:10:11;17.48;;;10.80;;
35550;SDS011;21655;46.056;13.616;2023-06-22T06:12:38;16.45;;;10.77;;
35550;SDS011;21655;46.056;13.616;2023-06-22T06:15:03;18.10;;;10.82;;
35550;SDS011;21655;46.056;13.616;2023-06-22T06:17:29;24.13;;;11.10;;
35550;SDS011;21655;46.056;13.616;2023-06-22T06:19:55;18.27;;;9.82;;
35550;SDS011;21655;46.056;13.616;2023-06-22T06:22:20;18.38;;;10.93;;
35550;SDS011;21655;46.056;13.616;2023-06-22T06:24:47;24.45;;;10.20;;
35550;SDS011;21655;46.056;13.616;2023-06-22T06:27:13;14.95;;;9.57;;
35550;SDS011;21655;46.056;13.616;2023-06-22T06:29:38;14.70;;;9.80;;
35550;SDS011;21655;46.056;13.616;2023-06-22T06:32:04;19.55;;;9.82;;
35550;SDS011;21655;46.056;13.616;2023-06-22T06:34:30;17.55;;;10.25;;
35550;SDS011;21655;46.056;13.616;2023-06-22T06:36:55;17.15;;;10.15;;
35550;SDS011;21655;46.056;13.616;2023-06-22T06:39:20;18.33;;;10.00;;
35550;SDS011;21655;46.056;13.616;2023-06-22T06:41:46;22.30;;;10.25;;
35550;SDS011;21655;46.056;13.616;2023-06-22T06:44:11;18.67;;;9.75;;
35550;SDS011;21655;46.056;13.616;2023-06-22T06:46:37;14.38;;;9.48;;
35550;SDS011;21655;46.056;13.616;2023-06-22T06:49:03;19.00;;;10.30;;
35550;SDS011;21655;46.056;13.616;2023-06-22T06:51:28;17.90;;;9.82;;
35550;SDS011;21655;46.056;13.616;2023-06-22T06:53:54;19.42;;;10.00;;
35550;SDS011;21655;46.056;13.616;2023-06-22T06:56:19;20.35;;;9.95;;
35550;SDS011;21655;46.056;13.616;2023-06-22T06:58:45;19.60;;;10.25;;
35550;SDS011;21655;46.056;13.616;2023-06-22T07:01:11;17.55;;;10.00;;
35550;SDS011;21655;46.056;13.616;2023-06-22T07:03:39;15.70;;;9.70;;
35550;SDS011;21655;46.056;13.616;2023-06-22T07:06:05;22.50;;;9.93;;
35550;SDS011;21655;46.056;13.616;2023-06-22T07:08:30;22.85;;;10.15;;
35550;SDS011;21655;46.056;13.616;2023-06-22T07:10:55;20.83;;;9.82;;
35550;SDS011;21655;46.056;13.616;2023-06-22T07:13:21;20.55;;;10.48;;
35550;SDS011;21655;46.056;13.616;2023-06-22T07:15:47;22.88;;;9.30;;
35550;SDS011;21655;46.056;13.616;2023-06-22T07:18:12;22.08;;;9.63;;
35550;SDS011;21655;46.056;13.616;2023-06-22T07:20:38;18.20;;;9.55;;
35550;SDS011;21655;46.056;13.616;2023-06-22T07:23:04;17.88;;;10.02;;
35550;SDS011;21655;46.056;13.616;2023-06-22T07:25:30;17.40;;;9.55;;
35550;SDS011;21655;46.056;13.616;2023-06-22T07:28:03;17.63;;;9.52;;
35550;SDS011;21655;46.056;13.616;2023-06-22T07:30:30;15.45;;;9.32;;
35550;SDS011;21655;46.056;13.616;2023-06-22T07:32:56;18.40;;;9.88;;
35550;SDS011;21655;46.056;13.616;2023-06-22T07:35:23;17.77;;;9.75;;
35550;SDS011;21655;46.056;13.616;2023-06-22T07:37:49;15.45;;;9.40;;
35550;SDS011;21655;46.056;13.616;2023-06-22T07:40:14;25.27;;;8.82;;
35550;SDS011;21655;46.056;13.616;2023-06-22T07:42:40;21.08;;;10.05;;
35550;SDS011;21655;46.056;13.616;2023-06-22T07:45:05;17.60;;;9.15;;
35550;SDS011;21655;46.056;13.616;2023-06-22T07:47:33;19.60;;;10.10;;
35550;SDS011;21655;46.056;13.616;2023-06-22T07:50:00;21.33;;;9.35;;
35550;SDS011;21655;46.056;13.616;2023-06-22T07:52:30;21.80;;;9.55;;
35550;SDS011;21655;46.056;13.616;2023-06-22T07:54:56;31.73;;;10.07;;
35550;SDS011;21655;46.056;13.616;2023-06-22T07:57:21;16.73;;;9.52;;
35550;SDS011;21655;46.056;13.616;2023-06-22T07:59:47;19.88;;;9.85;;
35550;SDS011;21655;46.056;13.616;2023-06-22T08:02:12;15.52;;;9.65;;
35550;SDS011;21655;46.056;13.616;2023-06-22T08:04:38;25.77;;;9.98;;
35550;SDS011;21655;46.056;13.616;2023-06-22T08:07:04;21.70;;;10.00;;
35550;SDS011;21655;46.056;13.616;2023-06-22T08:09:31;19.25;;;9.55;;
35550;SDS011;21655;46.056;13.616;2023-06-22T08:11:57;21.38;;;9.38;;
35550;SDS011;21655;46.056;13.616;2023-06-22T08:14:25;21.25;;;9.35;;
35550;SDS011;21655;46.056;13.616;2023-06-22T08:16:51;20.52;;;9.75;;
35550;SDS011;21655;46.056;13.616;2023-06-22T08:19:16;15.85;;;9.00;;
35550;SDS011;21655;46.056;13.616;2023-06-22T08:21:42;21.13;;;9.65;;
35550;SDS011;21655;46.056;13.616;2023-06-22T08:24:08;18.73;;;9.02;;
35550;SDS011;21655;46.056;13.616;2023-06-22T08:26:33;21.40;;;9.15;;
35550;SDS011;21655;46.056;13.616;2023-06-22T08:29:04;24.42;;;9.68;;
35550;SDS011;21655;46.056;13.616;2023-06-22T08:31:30;19.15;;;10.02;;
35550;SDS011;21655;46.056;13.616;2023-06-22T08:33:58;14.73;;;9.23;;
35550;SDS011;21655;46.056;13.616;2023-06-22T08:36:24;21.15;;;8.90;;
35550;SDS011;21655;46.056;13.616;2023-06-22T08:38:50;17.77;;;9.23;;
35550;SDS011;21655;46.056;13.616;2023-06-22T08:41:17;17.50;;;9.75;;
35550;SDS011;21655;46.056;13.616;2023-06-22T08:43:43;15.95;;;8.82;;
35550;SDS011;21655;46.056;13.616;2023-06-22T08:46:09;17.58;;;8.90;;
35550;SDS011;21655;46.056;13.616;2023-06-22T08:48:35;21.52;;;9.15;;
35550;SDS011;21655;46.056;13.616;2023-06-22T08:51:01;18.52;;;9.60;;
35550;SDS011;21655;46.056;13.616;2023-06-22T08:53:27;17.45;;;9.05;;
35550;SDS011;21655;46.056;13.616;2023-06-22T08:55:52;17.50;;;9.57;;
35550;SDS011;21655;46.056;13.616;2023-06-22T08:58:18;17.58;;;9.35;;
35550;SDS011;21655;46.056;13.616;2023-06-22T09:00:45;16.80;;;8.75;;
35550;SDS011;21655;46.056;13.616;2023-06-22T09:03:10;17.50;;;8.80;;
35550;SDS011;21655;46.056;13.616;2023-06-22T09:05:36;16.73;;;9.38;;
35550;SDS011;21655;46.056;13.616;2023-06-22T09:08:03;17.77;;;8.80;;
35550;SDS011;21655;46.056;13.616;2023-06-22T09:10:28;14.75;;;10.07;;
35550;SDS011;21655;46.056;13.616;2023-06-22T09:12:54;17.73;;;9.77;;
35550;SDS011;21655;46.056;13.616;2023-06-22T09:15:19;19.33;;;9.35;;
35550;SDS011;21655;46.056;13.616;2023-06-22T09:17:45;13.77;;;8.95;;
35550;SDS011;21655;46.056;13.616;2023-06-22T09:20:11;19.48;;;9.60;;
35550;SDS011;21655;46.056;13.616;2023-06-22T09:22:37;18.33;;;10.13;;
35550;SDS011;21655;46.056;13.616;2023-06-22T09:25:03;13.15;;;9.57;;
35550;SDS011;21655;46.056;13.616;2023-06-22T09:27:29;15.45;;;10.88;;
35550;SDS011;21655;46.056;13.616;2023-06-22T09:29:55;14.02;;;10.10;;
35550;SDS011;21655;46.056;13.616;2023-06-22T09:32:20;14.35;;;10.30;;
35550;SDS011;21655;46.056;13.616;2023-06-22T09:34:45;18.15;;;11.32;;
35550;SDS011;21655;46.056;13.616;2023-06-22T09:37:11;18.58;;;11.55;;
35550;SDS011;21655;46.056;13.616;2023-06-22T09:39:36;14.85;;;11.38;;
35550;SDS011;21655;46.056;13.616;2023-06-22T09:42:02;22.73;;;12.07;;
35550;SDS011;21655;46.056;13.616;2023-06-22T09:44:28;17.95;;;11.25;;
35550;SDS011;21655;46.056;13.616;2023-06-22T09:46:53;14.52;;;11.15;;
35550;SDS011;21655;46.056;13.616;2023-06-22T09:49:19;21.70;;;11.88;;
35550;SDS011;21655;46.056;13.616;2023-06-22T09:51:44;15.35;;;11.70;;
35550;SDS011;21655;46.056;13.616;2023-06-22T09:54:10;15.60;;;11.20;;
35550;SDS011;21655;46.056;13.616;2023-06-22T09:56:35;21.50;;;12.05;;
35550;SDS011;21655;46.056;13.616;2023-06-22T09:59:02;13.98;;;11.30;;
35550;SDS011;21655;46.056;13.616;2023-06-22T10:01:28;15.80;;;11.73;;
35550;SDS011;21655;46.056;13.616;2023-06-22T10:03:53;18.65;;;11.68;;
35550;SDS011;21655;46.056;13.616;2023-06-22T10:06:22;17.75;;;12.55;;
35550;SDS011;21655;46.056;13.616;2023-06-22T10:08:48;17.85;;;12.48;;
35550;SDS011;21655;46.056;13.616;2023-06-22T10:11:14;21.40;;;12.65;;
35550;SDS011;21655;46.056;13.616;2023-06-22T10:13:40;16.10;;;12.00;;
35550;SDS011;21655;46.056;13.616;2023-06-22T10:16:05;21.45;;;12.68;;
35550;SDS011;21655;46.056;13.616;2023-06-22T10:18:32;18.13;;;13.15;;
35550;SDS011;21655;46.056;13.616;2023-06-22T10:20:57;17.70;;;12.98;;
35550;SDS011;21655;46.056;13.616;2023-06-22T10:23:23;19.38;;;12.80;;
35550;SDS011;21655;46.056;13.616;2023-06-22T10:25:48;18.42;;;12.25;;
35550;SDS011;21655;46.056;13.616;2023-06-22T10:28:14;16.83;;;12.85;;
35550;SDS011;21655;46.056;13.616;2023-06-22T10:30:40;15.30;;;13.07;;
35550;SDS011;21655;46.056;13.616;2023-06-22T10:33:09;18.17;;;13.20;;
35550;SDS011;21655;46.056;13.616;2023-06-22T10:35:35;18.48;;;13.43;;
35550;SDS011;21655;46.056;13.616;2023-06-22T10:38:02;16.92;;;13.02;;
35550;SDS011;21655;46.056;13.616;2023-06-22T10:40:28;20.17;;;14.45;;
35550;SDS011;21655;46.056;13.616;2023-06-22T10:42:54;18.45;;;12.73;;
35550;SDS011;21655;46.056;13.616;2023-06-22T10:45:19;17.42;;;13.10;;
35550;SDS011;21655;46.056;13.616;2023-06-22T10:47:45;16.52;;;12.30;;
35550;SDS011;21655;46.056;13.616;2023-06-22T10:50:10;20.33;;;13.00;;
35550;SDS011;21655;46.056;13.616;2023-06-22T10:52:36;19.05;;;13.73;;
35550;SDS011;21655;46.056;13.616;2023-06-22T10:55:02;20.73;;;13.23;;
35550;SDS011;21655;46.056;13.616;2023-06-22T10:57:27;18.95;;;13.85;;
35550;SDS011;21655;46.056;13.616;2023-06-22T10:59:53;17.23;;;13.02;;
35550;SDS011;21655;46.056;13.616;2023-06-22T11:02:18;17.85;;;12.77;;
35550;SDS011;21655;46.056;13.616;2023-06-22T11:04:44;17.55;;;13.73;;
35550;SDS011;21655;46.056;13.616;2023-06-22T11:07:09;24.00;;;13.95;;
35550;SDS011;21655;46.056;13.616;2023-06-22T11:09:35;18.95;;;13.73;;
35550;SDS011;21655;46.056;13.616;2023-06-22T11:12:01;21.95;;;13.65;;
35550;SDS011;21655;46.056;13.616;2023-06-22T11:14:26;19.67;;;12.82;;
35550;SDS011;21655;46.056;13.616;2023-06-22T11:16:51;20.35;;;13.40;;
35550;SDS011;21655;46.056;13.616;2023-06-22T11:19:17;20.75;;;13.50;;
35550;SDS011;21655;46.056;13.616;2023-06-22T11:21:43;18.33;;;13.38;;
35550;SDS011;21655;46.056;13.616;2023-06-22T11:24:09;18.20;;;12.90;;
35550;SDS011;21655;46.056;13.616;2023-06-22T11:26:34;17.90;;;14.10;;
35550;SDS011;21655;46.056;13.616;2023-06-22T11:29:00;16.50;;;12.80;;
35550;SDS011;21655;46.056;13.616;2023-06-22T11:31:26;20.98;;;13.02;;
35550;SDS011;21655;46.056;13.616;2023-06-22T11:33:51;16.35;;;12.88;;
35550;SDS011;21655;46.056;13.616;2023-06-22T11:36:17;20.05;;;13.43;;
35550;SDS011;21655;46.056;13.616;2023-06-22T11:38:42;17.05;;;12.30;;
35550;SDS011;21655;46.056;13.616;2023-06-22T11:41:08;21.13;;;13.50;;
35550;SDS011;21655;46.056;13.616;2023-06-22T11:43:34;21.67;;;13.23;;
35550;SDS011;21655;46.056;13.616;2023-06-22T11:46:01;24.20;;;13.43;;
35550;SDS011;21655;46.056;13.616;2023-06-22T11:48:28;20.52;;;13.75;;
35550;SDS011;21655;46.056;13.616;2023-06-22T11:50:54;20.23;;;13.73;;
35550;SDS011;21655;46.056;13.616;2023-06-22T11:53:20;18.85;;;13.52;;
35550;SDS011;21655;46.056;13.616;2023-06-22T11:55:46;18.58;;;13.05;;
35550;SDS011;21655;46.056;13.616;2023-06-22T11:58:12;21.63;;;13.82;;
35550;SDS011;21655;46.056;13.616;2023-06-22T12:00:38;21.48;;;13.93;;
35550;SDS011;21655;46.056;13.616;2023-06-22T12:03:03;21.92;;;13.50;;
35550;SDS011;21655;46.056;13.616;2023-06-22T12:05:29;20.33;;;13.93;;
35550;SDS011;21655;46.056;13.616;2023-06-22T12:07:54;20.02;;;12.93;;
35550;SDS011;21655;46.056;13.616;2023-06-22T12:10:24;20.30;;;12.63;;
35550;SDS011;21655;46.056;13.616;2023-06-22T12:12:50;25.85;;;13.48;;
35550;SDS011;21655;46.056;13.616;2023-06-22T12:15:16;20.52;;;13.35;;
35550;SDS011;21655;46.056;13.616;2023-06-22T12:17:41;18.75;;;13.88;;
35550;SDS011;21655;46.056;13.616;2023-06-22T12:20:07;22.02;;;13.20;;
35550;SDS011;21655;46.056;13.616;2023-06-22T12:22:33;20.63;;;12.65;;
35550;SDS011;21655;46.056;13.616;2023-06-22T12:24:59;24.52;;;13.10;;
35550;SDS011;21655;46.056;13.616;2023-06-22T12:27:25;19.50;;;12.70;;
35550;SDS011;21655;46.056;13.616;2023-06-22T12:29:51;20.90;;;12.10;;
35550;SDS011;21655;46.056;13.616;2023-06-22T12:32:17;17.80;;;11.77;;
35550;SDS011;21655;46.056;13.616;2023-06-22T12:34:43;23.52;;;12.98;;
35550;SDS011;21655;46.056;13.616;2023-06-22T12:37:09;19.10;;;12.80;;
35550;SDS011;21655;46.056;13.616;2023-06-22T12:39:34;18.10;;;11.75;;
35550;SDS011;21655;46.056;13.616;2023-06-22T12:42:00;22.67;;;11.90;;
35550;SDS011;21655;46.056;13.616;2023-06-22T12:44:25;21.23;;;11.63;;
35550;SDS011;21655;46.056;13.616;2023-06-22T12:46:51;19.08;;;12.48;;
35550;SDS011;21655;46.056;13.616;2023-06-22T12:49:16;19.52;;;12.27;;
35550;SDS011;21655;46.056;13.616;2023-06-22T12:51:42;19.23;;;12.50;;
35550;SDS011;21655;46.056;13.616;2023-06-22T12:54:09;16.42;;;11.93;;
35550;SDS011;21655;46.056;13.616;2023-06-22T12:56:35;17.50;;;11.20;;
35550;SDS011;21655;46.056;13.616;2023-06-22T12:59:01;17.50;;;11.30;;
35550;SDS011;21655;46.056;13.616;2023-06-22T13:01:29;22.73;;;12.25;;
35550;SDS011;21655;46.056;13.616;2023-06-22T13:03:57;21.70;;;12.27;;
35550;SDS011;21655;46.056;13.616;2023-06-22T13:06:24;20.40;;;11.75;;
35550;SDS011;21655;46.056;13.616;2023-06-22T13:08:50;21.58;;;11.57;;
35550;SDS011;21655;46.056;13.616;2023-06-22T13:11:16;20.77;;;12.02;;
35550;SDS011;21655;46.056;13.616;2023-06-22T13:13:43;18.63;;;12.80;;
35550;SDS011;21655;46.056;13.616;2023-06-22T13:16:09;18.98;;;12.07;;
35550;SDS011;21655;46.056;13.616;2023-06-22T13:18:35;21.05;;;11.40;;
35550;SDS011;21655;46.056;13.616;2023-06-22T13:21:01;19.38;;;11.75;;
35550;SDS011;21655;46.056;13.616;2023-06-22T13:23:27;19.27;;;11.88;;
35550;SDS011;21655;46.056;13.616;2023-06-22T13:25:53;22.33;;;11.98;;
35550;SDS011;21655;46.056;13.616;2023-06-22T13:28:18;19.65;;;12.18;;
35550;SDS011;21655;46.056;13.616;2023-06-22T13:30:46;14.35;;;10.98;;
35550;SDS011;21655;46.056;13.616;2023-06-22T13:33:12;19.85;;;12.07;;
35550;SDS011;21655;46.056;13.616;2023-06-22T13:35:41;18.50;;;11.40;;
35550;SDS011;21655;46.056;13.616;2023-06-22T13:38:08;21.63;;;11.70;;
35550;SDS011;21655;46.056;13.616;2023-06-22T13:40:34;19.25;;;11.32;;
35550;SDS011;21655;46.056;13.616;2023-06-22T13:42:59;21.38;;;11.15;;
35550;SDS011;21655;46.056;13.616;2023-06-22T13:45:25;18.02;;;11.32;;
35550;SDS011;21655;46.056;13.616;2023-06-22T13:47:51;16.48;;;11.07;;
35550;SDS011;21655;46.056;13.616;2023-06-22T13:50:17;17.42;;;10.95;;
35550;SDS011;21655;46.056;13.616;2023-06-22T13:52:42;18.25;;;10.68;;
35550;SDS011;21655;46.056;13.616;2023-06-22T13:55:08;17.48;;;11.15;;
35550;SDS011;21655;46.056;13.616;2023-06-22T13:57:35;19.02;;;11.18;;
35550;SDS011;21655;46.056;13.616;2023-06-22T14:00:00;16.08;;;10.60;;
35550;SDS011;21655;46.056;13.616;2023-06-22T14:02:26;21.77;;;11.20;;
35550;SDS011;21655;46.056;13.616;2023-06-22T14:04:53;14.35;;;9.68;;
35550;SDS011;21655;46.056;13.616;2023-06-22T14:07:18;17.48;;;11.05;;
35550;SDS011;21655;46.056;13.616;2023-06-22T14:09:47;21.63;;;10.13;;
35550;SDS011;21655;46.056;13.616;2023-06-22T14:12:12;20.38;;;10.27;;
35550;SDS011;21655;46.056;13.616;2023-06-22T14:14:38;17.67;;;10.45;;
35550;SDS011;21655;46.056;13.616;2023-06-22T14:17:04;21.45;;;11.02;;